createdAt,value
2022-11-20T00:01:10.511Z,14.97
2022-11-20T00:03:36.936Z,12.07
2022-11-20T00:06:05.585Z,10.57
2022-11-20T00:08:31.976Z,9.77
2022-11-20T00:10:58.407Z,12.03
2022-11-20T00:13:24.815Z,11.40
2022-11-20T00:15:58.401Z,11.27
2022-11-20T00:18:24.852Z,13.07
2022-11-20T00:20:51.254Z,12.83
2022-11-20T00:23:17.712Z,11.50
2022-11-20T00:25:44.145Z,11.07
2022-11-20T00:28:10.539Z,13.37
2022-11-20T00:30:36.954Z,14.10
2022-11-20T00:33:03.577Z,11.33
2022-11-20T00:35:29.984Z,10.43
2022-11-20T00:37:56.395Z,11.57
2022-11-20T00:40:22.800Z,14.80
2022-11-20T00:42:49.194Z,13.90
2022-11-20T00:45:15.605Z,14.73
2022-11-20T00:47:42.012Z,14.30
2022-11-20T00:50:08.817Z,13.50
2022-11-20T00:52:35.219Z,11.90
2022-11-20T00:55:01.613Z,11.97
2022-11-20T00:57:27.997Z,12.60
2022-11-20T00:59:54.396Z,15.60
2022-11-20T01:02:20.799Z,12.27
2022-11-20T01:04:47.251Z,13.67
2022-11-20T01:07:13.839Z,15.20
2022-11-20T01:09:40.290Z,12.47
2022-11-20T01:12:06.806Z,11.30
2022-11-20T01:14:33.220Z,13.60
2022-11-20T01:16:59.640Z,14.37
2022-11-20T01:19:26.253Z,11.83
2022-11-20T01:21:54.693Z,13.30
2022-11-20T01:24:22.484Z,19.37
2022-11-20T01:26:51.209Z,14.17
2022-11-20T01:29:24.036Z,12.77
2022-11-20T01:31:51.200Z,14.50
2022-11-20T01:34:18.717Z,13.20
2022-11-20T01:36:45.965Z,12.37
2022-11-20T01:39:20.675Z,14.77
2022-11-20T01:42:09.935Z,11.77
2022-11-20T01:44:42.948Z,11.83
2022-11-20T01:47:10.503Z,13.93
2022-11-20T01:49:43.312Z,11.37
2022-11-20T01:52:16.533Z,13.63
2022-11-20T01:54:47.303Z,13.17
2022-11-20T01:57:14.326Z,12.00
2022-11-20T01:59:44.556Z,12.93
2022-11-20T02:02:11.078Z,13.87
2022-11-20T02:04:37.563Z,12.60
2022-11-20T02:07:05.888Z,15.20
2022-11-20T02:09:32.533Z,13.30
2022-11-20T02:11:59.118Z,12.80
2022-11-20T02:14:26.239Z,13.80
2022-11-20T02:16:52.847Z,13.63
2022-11-20T02:19:31.576Z,11.10
2022-11-20T02:22:32.318Z,12.90
2022-11-20T02:25:01.933Z,12.87
2022-11-20T02:27:28.427Z,12.37
2022-11-20T02:29:58.649Z,15.30
2022-11-20T02:32:28.115Z,13.13
2022-11-20T02:34:54.670Z,13.97
2022-11-20T02:37:21.856Z,13.03
2022-11-20T02:39:50.468Z,12.73
2022-11-20T02:42:16.941Z,14.00
2022-11-20T02:44:43.538Z,12.60
2022-11-20T02:47:10.479Z,13.67
2022-11-20T02:49:36.896Z,17.73
2022-11-20T02:52:03.455Z,11.20
2022-11-20T02:54:29.976Z,15.13
2022-11-20T02:56:56.517Z,15.60
2022-11-20T02:59:23.236Z,13.53
2022-11-20T03:01:49.845Z,15.10
2022-11-20T03:04:16.360Z,14.27
2022-11-20T03:06:42.871Z,18.20
2022-11-20T03:09:09.281Z,12.70
2022-11-20T03:11:35.696Z,12.77
2022-11-20T03:14:05.904Z,12.87
2022-11-20T03:16:32.713Z,13.97
2022-11-20T03:18:59.627Z,13.67
2022-11-20T03:21:26.317Z,12.63
2022-11-20T03:23:54.807Z,15.70
2022-11-20T03:26:23.392Z,11.77
2022-11-20T03:28:55.126Z,13.80
2022-11-20T03:31:25.184Z,13.30
2022-11-20T03:33:51.838Z,16.20
2022-11-20T03:36:19.548Z,13.00
2022-11-20T03:38:46.339Z,12.57
2022-11-20T03:41:21.626Z,12.73
2022-11-20T03:43:52.809Z,11.37
2022-11-20T03:46:19.499Z,13.10
2022-11-20T03:48:51.154Z,12.37
2022-11-20T03:51:20.992Z,11.73
2022-11-20T03:53:48.673Z,10.67
2022-11-20T03:56:17.434Z,11.67
2022-11-20T03:58:44.203Z,11.37
2022-11-20T04:01:16.456Z,12.30
2022-11-20T04:03:43.440Z,13.57
2022-11-20T04:06:12.306Z,11.43
2022-11-20T04:08:39.121Z,10.47
2022-11-20T04:11:19.774Z,11.80
2022-11-20T04:13:57.704Z,12.17
2022-11-20T04:16:25.296Z,9.37
2022-11-20T04:18:58.601Z,11.50
2022-11-20T04:21:25.873Z,11.50
2022-11-20T04:23:56.058Z,10.73
2022-11-20T04:26:24.403Z,13.00
2022-11-20T04:28:51.003Z,11.30
2022-11-20T04:31:20.257Z,11.63
2022-11-20T04:33:46.959Z,11.13
2022-11-20T04:36:15.771Z,10.97
2022-11-20T04:38:42.576Z,10.87
2022-11-20T04:41:15.818Z,9.47
2022-11-20T04:43:42.235Z,11.23
2022-11-20T04:46:08.698Z,12.17
2022-11-20T04:48:35.704Z,10.77
2022-11-20T04:51:04.855Z,10.93
2022-11-20T04:53:31.255Z,11.57
2022-11-20T04:56:08.637Z,11.43
2022-11-20T04:58:35.559Z,9.83
2022-11-20T05:01:03.564Z,9.70
2022-11-20T05:03:30.343Z,10.77
2022-11-20T05:05:56.765Z,12.57
2022-11-20T05:08:23.436Z,12.73
2022-11-20T05:10:49.838Z,10.90
2022-11-20T05:13:16.241Z,9.47
2022-11-20T05:15:42.674Z,11.27
2022-11-20T05:18:09.161Z,9.00
2022-11-20T05:20:37.136Z,12.03
2022-11-20T05:23:03.576Z,11.00
2022-11-20T05:25:30.009Z,11.43
2022-11-20T05:27:56.406Z,11.83
2022-11-20T05:30:22.864Z,9.93
2022-11-20T05:32:49.269Z,9.93
2022-11-20T05:35:15.757Z,11.73
2022-11-20T05:37:42.167Z,11.00
2022-11-20T05:40:09.324Z,10.20
2022-11-20T05:42:36.563Z,9.90
2022-11-20T05:45:05.252Z,10.90
2022-11-20T05:47:35.430Z,14.43
2022-11-20T05:50:02.179Z,9.40
2022-11-20T05:52:31.883Z,11.77
2022-11-20T05:54:58.321Z,11.83
2022-11-20T05:57:24.850Z,10.13
2022-11-20T05:59:51.287Z,12.30
2022-11-20T06:02:17.753Z,10.93
2022-11-20T06:04:44.217Z,9.87
2022-11-20T06:07:10.670Z,10.63
2022-11-20T06:09:37.139Z,10.97
2022-11-20T06:12:03.669Z,11.27
2022-11-20T06:14:30.089Z,10.80
2022-11-20T06:16:56.794Z,10.97
2022-11-20T06:19:23.467Z,10.73
2022-11-20T06:21:52.961Z,10.13
2022-11-20T06:24:19.387Z,9.23
2022-11-20T06:26:45.867Z,8.40
2022-11-20T06:29:12.658Z,9.23
2022-11-20T06:31:39.245Z,8.50
2022-11-20T06:34:07.101Z,10.67
2022-11-20T06:36:33.859Z,10.60
2022-11-20T06:39:00.653Z,11.37
2022-11-20T06:41:27.105Z,14.33
2022-11-20T06:43:53.531Z,13.03
2022-11-20T06:46:20.720Z,14.50
2022-11-20T06:48:48.430Z,14.40
2022-11-20T06:51:15.209Z,13.80
2022-11-20T06:53:41.623Z,13.10
2022-11-20T06:56:08.529Z,11.27
2022-11-20T06:58:35.932Z,9.73
2022-11-20T07:01:05.823Z,8.63
2022-11-20T07:03:32.325Z,9.83
2022-11-20T07:05:59.523Z,10.33
2022-11-20T07:08:25.942Z,7.80
2022-11-20T07:10:52.635Z,9.80
2022-11-20T07:13:19.075Z,8.27
2022-11-20T07:15:45.512Z,6.60
2022-11-20T07:18:12.145Z,8.03
2022-11-20T07:20:38.563Z,9.03
2022-11-20T07:23:04.963Z,11.00
2022-11-20T07:25:31.592Z,7.63
2022-11-20T07:27:59.036Z,6.83
2022-11-20T07:30:25.909Z,7.57
2022-11-20T07:32:53.497Z,14.23
2022-11-20T07:35:20.569Z,8.50
2022-11-20T07:37:48.116Z,9.83
2022-11-20T07:40:14.658Z,8.23
2022-11-20T07:42:54.428Z,11.03
2022-11-20T07:45:22.014Z,9.63
2022-11-20T07:47:48.798Z,10.73
2022-11-20T07:50:15.680Z,8.67
2022-11-20T07:52:42.138Z,8.57
2022-11-20T07:55:09.445Z,9.00
2022-11-20T07:57:35.848Z,7.90
2022-11-20T08:00:02.876Z,8.83
2022-11-20T08:02:29.286Z,8.07
2022-11-20T08:04:55.760Z,9.00
2022-11-20T08:07:22.224Z,9.30
2022-11-20T08:09:48.772Z,8.93
2022-11-20T08:12:38.382Z,6.73
2022-11-20T08:15:12.630Z,10.50
2022-11-20T08:17:39.726Z,8.57
2022-11-20T08:20:06.370Z,11.57
2022-11-20T08:22:32.847Z,10.03
2022-11-20T08:24:59.322Z,9.27
2022-11-20T08:27:25.729Z,7.83
2022-11-20T08:29:52.192Z,8.47
2022-11-20T08:32:18.595Z,8.10
2022-11-20T08:34:45.049Z,6.67
2022-11-20T08:37:11.452Z,8.40
2022-11-20T08:39:37.878Z,7.60
2022-11-20T08:42:08.212Z,8.57
2022-11-20T08:44:34.647Z,6.60
2022-11-20T08:47:01.332Z,8.03
2022-11-20T08:49:27.724Z,8.27
2022-11-20T08:51:56.087Z,9.70
2022-11-20T08:54:23.557Z,6.67
2022-11-20T08:56:50.009Z,8.07
2022-11-20T08:59:43.972Z,9.87
2022-11-20T09:02:02.934Z,10.87
2022-11-20T09:04:29.653Z,10.60
2022-11-20T09:06:56.069Z,7.13
2022-11-20T09:09:22.908Z,7.30
2022-11-20T09:11:50.880Z,14.20
2022-11-20T09:14:17.375Z,7.57
2022-11-20T09:16:46.038Z,8.17
2022-11-20T09:19:34.765Z,7.03
2022-11-20T09:22:00.016Z,9.53
2022-11-20T09:24:29.555Z,8.60
2022-11-20T09:26:55.982Z,7.13
2022-11-20T09:29:22.870Z,9.43
2022-11-20T09:31:49.663Z,7.00
2022-11-20T09:34:16.109Z,6.63
2022-11-20T09:36:42.542Z,7.27
2022-11-20T09:39:08.957Z,6.60
2022-11-20T09:42:00.089Z,7.83
2022-11-20T09:44:32.456Z,6.80
2022-11-20T09:47:17.943Z,6.20
2022-11-20T09:50:10.580Z,5.60
2022-11-20T09:53:03.311Z,7.03
2022-11-20T09:55:30.352Z,5.63
2022-11-20T09:57:57.403Z,5.37
2022-11-20T10:00:24.377Z,6.83
2022-11-20T10:03:03.309Z,32.03
2022-11-20T10:05:35.536Z,52.27
2022-11-20T10:08:20.240Z,13.27
2022-11-20T10:10:52.636Z,7.10
2022-11-20T10:13:41.994Z,6.30
2022-11-20T10:16:29.482Z,8.47
2022-11-20T10:19:11.055Z,8.47
2022-11-20T10:21:52.679Z,5.87
2022-11-20T10:24:30.892Z,7.33
2022-11-20T10:27:15.439Z,6.97
2022-11-20T10:29:45.305Z,7.40
2022-11-20T10:32:20.248Z,7.33
2022-11-20T10:35:00.597Z,6.83
2022-11-20T10:37:28.476Z,5.40
2022-11-20T10:40:11.194Z,5.63
2022-11-20T10:43:02.283Z,6.20
2022-11-20T10:45:38.022Z,4.57
2022-11-20T10:48:17.901Z,5.90
2022-11-20T10:51:02.603Z,4.23
2022-11-20T10:54:04.923Z,5.10
2022-11-20T10:56:51.493Z,5.80
2022-11-20T10:59:46.476Z,7.80
2022-11-20T11:02:30.878Z,6.80
2022-11-20T11:04:57.625Z,8.43
2022-11-20T11:07:31.825Z,6.40
2022-11-20T11:09:58.542Z,5.53
2022-11-20T11:12:27.007Z,6.07
2022-11-20T11:14:55.258Z,5.17
2022-11-20T11:17:26.480Z,3.87
2022-11-20T11:20:19.619Z,4.03
2022-11-20T11:22:47.798Z,4.07
2022-11-20T11:25:37.001Z,7.87
2022-11-20T11:28:06.008Z,7.20
2022-11-20T11:30:43.966Z,5.93
2022-11-20T11:33:12.312Z,7.00
2022-11-20T11:35:51.177Z,6.33
2022-11-20T11:38:22.427Z,5.03
2022-11-20T11:40:48.950Z,4.07
2022-11-20T11:43:42.082Z,3.23
2022-11-20T11:46:20.753Z,2.87
2022-11-20T11:49:02.220Z,6.57
2022-11-20T11:52:06.330Z,3.50
2022-11-20T11:54:54.846Z,4.53
2022-11-20T11:57:24.281Z,4.53
2022-11-20T12:00:04.735Z,3.90
2022-11-20T12:02:46.443Z,3.33
2022-11-20T12:05:44.836Z,3.97
2022-11-20T12:08:18.431Z,4.17
2022-11-20T12:10:56.858Z,3.20
2022-11-20T12:13:41.975Z,3.43
2022-11-20T12:16:13.806Z,4.47
2022-11-20T12:18:41.143Z,3.57
2022-11-20T12:21:13.683Z,4.10
2022-11-20T12:23:59.715Z,5.43
2022-11-20T12:26:53.985Z,5.67
2022-11-20T12:29:55.872Z,7.20
2022-11-20T12:32:49.466Z,5.53
2022-11-20T12:35:48.293Z,4.63
2022-11-20T12:38:40.449Z,5.37
2022-11-20T12:41:53.519Z,5.57
2022-11-20T12:44:50.504Z,6.20
2022-11-20T12:47:22.536Z,3.57
2022-11-20T12:49:59.160Z,4.83
2022-11-20T12:52:59.612Z,3.83
2022-11-20T12:55:44.791Z,4.83
2022-11-20T12:58:29.820Z,5.07
2022-11-20T13:01:37.968Z,4.50
2022-11-20T13:04:13.655Z,4.00
2022-11-20T13:06:42.530Z,3.47
2022-11-20T13:09:14.177Z,4.57
2022-11-20T13:12:05.298Z,3.53
2022-11-20T13:14:36.465Z,3.50
2022-11-20T13:17:12.373Z,3.07
2022-11-20T13:19:39.531Z,5.87
2022-11-20T13:22:05.963Z,4.70
2022-11-20T13:24:33.182Z,3.80
2022-11-20T13:27:20.391Z,3.87
2022-11-20T13:29:48.666Z,5.17
2022-11-20T13:32:17.722Z,4.33
2022-11-20T13:34:53.965Z,4.33
2022-11-20T13:37:37.719Z,4.07
2022-11-20T13:40:11.199Z,6.13
2022-11-20T13:42:41.206Z,6.50
2022-11-20T13:45:23.447Z,6.03
2022-11-20T13:47:51.290Z,5.67
2022-11-20T13:50:18.380Z,5.47
2022-11-20T13:52:58.973Z,4.40
2022-11-20T13:55:49.491Z,5.37
2022-11-20T13:58:48.197Z,5.37
2022-11-20T14:01:21.377Z,5.63
2022-11-20T14:04:05.740Z,5.60
2022-11-20T14:06:40.199Z,5.93
2022-11-20T14:09:12.654Z,6.43
2022-11-20T14:11:47.274Z,5.80
2022-11-20T14:14:18.576Z,3.63
2022-11-20T14:16:47.972Z,2.80
2022-11-20T14:19:20.352Z,4.30
2022-11-20T14:21:52.343Z,3.87
2022-11-20T14:24:24.637Z,5.80
2022-11-20T14:26:52.539Z,4.70
2022-11-20T14:29:21.093Z,3.97
2022-11-20T14:31:52.774Z,4.93
2022-11-20T14:34:26.593Z,5.00
2022-11-20T14:37:05.230Z,6.50
2022-11-20T14:39:34.385Z,5.13
2022-11-20T14:42:00.813Z,6.40
2022-11-20T14:44:45.649Z,4.97
2022-11-20T14:47:14.262Z,4.40
2022-11-20T14:49:41.014Z,6.17
2022-11-20T14:52:15.420Z,4.00
2022-11-20T14:54:46.889Z,4.93
2022-11-20T14:57:25.249Z,5.73
2022-11-20T14:59:51.707Z,15.07
2022-11-20T15:02:18.165Z,6.93
2022-11-20T15:05:00.391Z,6.20
2022-11-20T15:07:29.546Z,7.70
2022-11-20T15:10:03.477Z,6.07
2022-11-20T15:12:31.809Z,5.83
2022-11-20T15:14:58.471Z,4.90
2022-11-20T15:17:25.317Z,6.23
2022-11-20T15:19:52.645Z,6.83
2022-11-20T15:22:19.154Z,8.63
2022-11-20T15:24:46.182Z,13.77
2022-11-20T15:27:13.045Z,12.40
2022-11-20T15:29:39.526Z,6.53
2022-11-20T15:32:10.509Z,7.40
2022-11-20T15:34:39.707Z,4.83
2022-11-20T15:37:06.121Z,6.10
2022-11-20T15:39:32.516Z,5.77
2022-11-20T15:41:58.944Z,6.70
2022-11-20T15:44:25.468Z,5.90
2022-11-20T15:46:52.211Z,4.53
2022-11-20T15:49:19.811Z,6.80
2022-11-20T15:51:48.905Z,7.40
2022-11-20T15:54:24.702Z,5.47
2022-11-20T15:56:54.233Z,6.20
2022-11-20T15:59:20.939Z,6.60
2022-11-20T16:01:47.469Z,6.60
2022-11-20T16:04:15.445Z,7.23
2022-11-20T16:06:41.930Z,8.27
2022-11-20T16:09:08.363Z,14.97
2022-11-20T16:11:37.377Z,15.27
2022-11-20T16:14:23.651Z,22.23
2022-11-20T16:16:50.224Z,16.50
2022-11-20T16:19:16.854Z,14.20
2022-11-20T16:21:43.333Z,15.40
2022-11-20T16:24:14.695Z,13.87
2022-11-20T16:26:41.497Z,12.10
2022-11-20T16:29:08.143Z,11.40
2022-11-20T16:31:35.028Z,11.00
2022-11-20T16:34:10.058Z,11.30
2022-11-20T16:36:40.651Z,11.30
2022-11-20T16:39:07.092Z,10.57
2022-11-20T16:41:35.253Z,10.83
2022-11-20T16:44:03.952Z,11.27
2022-11-20T16:46:31.576Z,8.90
2022-11-20T16:49:02.939Z,8.17
2022-11-20T16:51:30.699Z,12.30
2022-11-20T16:53:57.513Z,12.20
2022-11-20T16:56:25.936Z,10.87
2022-11-20T16:58:54.734Z,9.50
2022-11-20T17:01:22.529Z,8.90
2022-11-20T17:03:57.758Z,10.27
2022-11-20T17:06:27.275Z,12.80
2022-11-20T17:08:56.012Z,9.20
2022-11-20T17:11:22.943Z,9.73
2022-11-20T17:13:49.755Z,10.50
2022-11-20T17:16:21.195Z,10.07
2022-11-20T17:18:49.858Z,9.70
2022-11-20T17:21:17.391Z,13.83
2022-11-20T17:23:45.084Z,11.63
2022-11-20T17:26:14.656Z,14.80
2022-11-20T17:28:41.425Z,15.07
2022-11-20T17:31:10.643Z,16.73
2022-11-20T17:33:38.351Z,14.80
2022-11-20T17:36:06.293Z,17.43
2022-11-20T17:38:32.743Z,16.27
2022-11-20T17:41:09.915Z,17.93
2022-11-20T17:43:37.091Z,18.07
2022-11-20T17:46:07.031Z,22.23
2022-11-20T17:48:34.411Z,19.00
2022-11-20T17:51:02.013Z,22.83
2022-11-20T17:53:29.538Z,19.60
2022-11-20T17:56:17.680Z,23.53
2022-11-20T17:58:44.121Z,20.83
2022-11-20T18:01:11.268Z,24.77
2022-11-20T18:03:38.077Z,21.80
2022-11-20T18:06:11.529Z,22.77
2022-11-20T18:08:38.252Z,19.70
2022-11-20T18:11:19.484Z,17.47
2022-11-20T18:14:06.895Z,17.50
2022-11-20T18:16:35.972Z,16.53
2022-11-20T18:19:02.443Z,17.57
2022-11-20T18:21:30.245Z,19.47
2022-11-20T18:23:57.183Z,22.90
2022-11-20T18:26:24.287Z,18.23
2022-11-20T18:28:51.292Z,15.63
2022-11-20T18:31:18.107Z,17.50
2022-11-20T18:33:44.787Z,21.53
2022-11-20T18:36:15.713Z,24.77
2022-11-20T18:38:46.806Z,27.33
2022-11-20T18:41:33.320Z,23.70
2022-11-20T18:44:22.646Z,20.73
2022-11-20T18:46:49.201Z,17.07
2022-11-20T18:49:15.844Z,15.00
2022-11-20T18:51:44.137Z,13.73
2022-11-20T18:54:11.657Z,17.60
2022-11-20T18:56:38.345Z,14.23
2022-11-20T18:59:05.982Z,17.30
2022-11-20T19:01:32.595Z,15.23
2022-11-20T19:03:59.069Z,14.50
2022-11-20T19:06:26.297Z,15.60
2022-11-20T19:08:53.973Z,13.23
2022-11-20T19:11:20.392Z,10.73
2022-11-20T19:13:46.791Z,13.80
2022-11-20T19:16:15.772Z,16.03
2022-11-20T19:18:43.721Z,13.93
2022-11-20T19:21:12.144Z,13.57
2022-11-20T19:23:39.070Z,16.20
2022-11-20T19:26:06.161Z,16.77
2022-11-20T19:28:36.715Z,16.00
2022-11-20T19:31:04.410Z,19.00
2022-11-20T19:33:31.487Z,20.83
2022-11-20T19:35:58.539Z,24.67
2022-11-20T19:38:25.304Z,25.27
2022-11-20T19:40:51.709Z,22.10
2022-11-20T19:43:18.113Z,20.80
2022-11-20T19:45:44.520Z,16.50
2022-11-20T19:48:10.940Z,21.73
2022-11-20T19:50:37.387Z,25.77
2022-11-20T19:53:03.876Z,28.50
2022-11-20T19:55:30.290Z,22.43
2022-11-20T19:57:56.707Z,23.83
2022-11-20T20:00:29.540Z,20.37
2022-11-20T20:02:57.449Z,24.37
2022-11-20T20:05:24.049Z,18.53
2022-11-20T20:07:50.453Z,21.73
2022-11-20T20:10:18.185Z,21.23
2022-11-20T20:12:44.603Z,27.43
2022-11-20T20:15:11.087Z,22.20
2022-11-20T20:17:37.579Z,24.40
2022-11-20T20:20:04.346Z,29.63
2022-11-20T20:22:30.761Z,22.93
2022-11-20T20:24:57.160Z,22.87
2022-11-20T20:27:23.579Z,24.53
2022-11-20T20:29:49.981Z,19.83
2022-11-20T20:32:16.379Z,22.13
2022-11-20T20:34:42.781Z,18.00
2022-11-20T20:37:09.197Z,20.73
2022-11-20T20:39:35.648Z,22.53
2022-11-20T20:42:02.074Z,24.37
2022-11-20T20:44:47.079Z,22.17
2022-11-20T20:47:13.478Z,20.33
2022-11-20T20:49:43.030Z,22.07
2022-11-20T20:52:10.344Z,19.77
2022-11-20T20:54:37.001Z,20.27
2022-11-20T20:57:03.489Z,20.40
2022-11-20T20:59:29.879Z,22.67
2022-11-20T21:01:56.306Z,27.03
2022-11-20T21:04:22.826Z,24.30
2022-11-20T21:06:49.261Z,25.37
2022-11-20T21:09:15.673Z,24.43
2022-11-20T21:11:42.088Z,24.47
2022-11-20T21:14:08.498Z,21.67
2022-11-20T21:16:41.084Z,21.30
2022-11-20T21:19:07.920Z,17.73
2022-11-20T21:21:52.911Z,16.20
2022-11-20T21:24:19.403Z,14.33
2022-11-20T21:26:45.853Z,21.00
2022-11-20T21:29:12.506Z,15.03
2022-11-20T21:31:39.155Z,18.20
2022-11-20T21:34:05.561Z,20.20
2022-11-20T21:36:31.979Z,15.57
2022-11-20T21:38:59.465Z,18.80
2022-11-20T21:41:27.434Z,18.83
2022-11-20T21:44:24.043Z,24.47
2022-11-20T21:46:43.368Z,22.83
2022-11-20T21:49:10.516Z,24.43
2022-11-20T21:51:37.038Z,18.30
2022-11-20T21:54:03.779Z,19.47
2022-11-20T21:56:30.215Z,21.40
2022-11-20T21:58:56.690Z,18.77
2022-11-20T22:01:25.916Z,17.37
2022-11-20T22:03:56.689Z,17.03
2022-11-20T22:06:24.422Z,16.03
2022-11-20T22:08:51.022Z,18.23
2022-11-20T22:11:19.835Z,17.30
2022-11-20T22:14:05.418Z,17.93
2022-11-20T22:16:33.951Z,17.33
2022-11-20T22:19:00.728Z,14.70
2022-11-20T22:21:29.033Z,16.87
2022-11-20T22:23:55.789Z,15.17
2022-11-20T22:26:24.903Z,14.60
2022-11-20T22:28:52.998Z,14.50
2022-11-20T22:31:20.551Z,15.00
2022-11-20T22:33:47.099Z,10.97
2022-11-20T22:36:18.857Z,11.67
2022-11-20T22:38:45.468Z,14.17
2022-11-20T22:41:14.064Z,10.83
2022-11-20T22:43:41.588Z,9.23
2022-11-20T22:46:17.967Z,12.23
2022-11-20T22:48:52.222Z,10.47
2022-11-20T22:51:20.248Z,10.10
2022-11-20T22:53:47.129Z,10.03
2022-11-20T22:56:13.915Z,11.13
2022-11-20T22:58:42.021Z,12.47
2022-11-20T23:01:18.480Z,10.30
2022-11-20T23:03:47.035Z,9.60
2022-11-20T23:06:14.099Z,12.43
2022-11-20T23:08:41.556Z,10.67
2022-11-20T23:11:10.711Z,11.47
2022-11-20T23:13:37.222Z,13.80
2022-11-20T23:16:12.497Z,12.07
2022-11-20T23:18:39.219Z,12.30
2022-11-20T23:21:12.631Z,12.00
2022-11-20T23:23:39.115Z,10.60
2022-11-20T23:26:10.718Z,12.17
2022-11-20T23:28:37.673Z,13.57
2022-11-20T23:31:05.273Z,12.13
2022-11-20T23:33:31.985Z,15.50
2022-11-20T23:35:58.397Z,12.70
2022-11-20T23:38:24.796Z,13.63
2022-11-20T23:40:52.300Z,14.20
2022-11-20T23:43:20.615Z,15.10
2022-11-20T23:45:51.847Z,12.87
2022-11-20T23:48:19.104Z,14.87
2022-11-20T23:50:45.736Z,16.47
2022-11-20T23:53:14.149Z,14.70
2022-11-20T23:55:51.668Z,14.70
2022-11-20T23:58:19.378Z,15.73
